sensor_id;sensor_type;location;lat;lon;timestamp;pressure;altitude;pressure_sealevel;temperature;humidity
48402;BME280;65988;52.422;16.746;2023-05-03T00:28:22;100638.31;;;23.47;36.48
48402;BME280;65988;52.422;16.746;2023-05-03T01:59:34;100629.41;;;22.29;36.09
48402;BME280;65988;52.422;16.746;2023-05-03T06:40:30;100859.00;;;30.50;27.72
48402;BME280;65988;52.422;16.746;2023-05-03T06:42:56;100661.28;;;28.69;28.91
48402;BME280;65988;52.422;16.746;2023-05-03T06:45:21;100622.38;;;29.57;27.95
48402;BME280;65988;52.422;16.746;2023-05-03T06:47:47;100471.34;;;29.14;27.94
48402;BME280;65988;52.422;16.746;2023-05-03T06:50:14;100697.22;;;30.41;27.94
48402;BME280;65988;52.422;16.746;2023-05-03T06:52:39;100733.06;;;30.03;28.21
48402;BME280;65988;52.422;16.746;2023-05-03T06:55:06;100828.03;;;30.04;28.04
48402;BME280;65988;52.422;16.746;2023-05-03T06:57:32;100577.63;;;29.68;27.51
48402;BME280;65988;52.422;16.746;2023-05-03T06:59:57;100697.53;;;30.29;27.50
48402;BME280;65988;52.422;16.746;2023-05-03T07:02:23;100658.78;;;30.76;26.97
48402;BME280;65988;52.422;16.746;2023-05-03T07:04:49;100410.59;;;29.52;26.73
48402;BME280;65988;52.422;16.746;2023-05-03T07:07:15;100321.44;;;28.37;26.98
48402;BME280;65988;52.422;16.746;2023-05-03T07:09:40;100541.88;;;29.79;27.26
48402;BME280;65988;52.422;16.746;2023-05-03T07:12:06;100678.84;;;30.29;27.34
48402;BME280;65988;52.422;16.746;2023-05-03T07:14:31;100391.63;;;29.13;26.97
48402;BME280;65988;52.422;16.746;2023-05-03T07:16:56;100552.00;;;30.18;26.58
48402;BME280;65988;52.422;16.746;2023-05-03T07:19:22;100577.56;;;30.95;26.36
48402;BME280;65988;52.422;16.746;2023-05-03T07:21:47;100455.84;;;30.03;26.19
48402;BME280;65988;52.422;16.746;2023-05-03T07:24:13;100634.13;;;31.23;26.55
48402;BME280;65988;52.422;16.746;2023-05-03T07:26:38;100606.56;;;31.96;25.63
48402;BME280;65988;52.422;16.746;2023-05-03T07:29:03;100454.97;;;31.73;24.75
48402;BME280;65988;52.422;16.746;2023-05-03T07:31:29;100668.56;;;31.83;25.82
48402;BME280;65988;52.422;16.746;2023-05-03T07:33:54;100444.16;;;31.66;24.64
48402;BME280;65988;52.422;16.746;2023-05-03T07:36:20;100444.69;;;31.53;24.76
48402;BME280;65988;52.422;16.746;2023-05-03T07:38:45;100586.56;;;32.61;24.37
48402;BME280;65988;52.422;16.746;2023-05-03T07:41:11;100500.81;;;32.78;23.87
48402;BME280;65988;52.422;16.746;2023-05-03T07:43:36;100394.59;;;31.55;23.67
48402;BME280;65988;52.422;16.746;2023-05-03T07:46:02;100508.19;;;31.43;25.06
48402;BME280;65988;52.422;16.746;2023-05-03T07:48:27;100520.09;;;31.32;24.81
48402;BME280;65988;52.422;16.746;2023-05-03T07:50:53;100385.13;;;31.45;23.88
48402;BME280;65988;52.422;16.746;2023-05-03T07:53:18;100204.09;;;27.97;26.10
48402;BME280;65988;52.422;16.746;2023-05-03T07:55:43;100476.34;;;30.77;24.93
48402;BME280;65988;52.422;16.746;2023-05-03T07:58:09;100503.03;;;28.99;26.99
48402;BME280;65988;52.422;16.746;2023-05-03T08:00:34;100421.44;;;31.31;23.89
48402;BME280;65988;52.422;16.746;2023-05-03T08:02:59;100566.03;;;33.00;23.54
48402;BME280;65988;52.422;16.746;2023-05-03T08:05:30;100474.97;;;33.30;22.85
48402;BME280;65988;52.422;16.746;2023-05-03T08:07:55;100590.81;;;34.50;22.26
48402;BME280;65988;52.422;16.746;2023-05-03T08:10:21;100178.88;;;32.32;20.85
48402;BME280;65988;52.422;16.746;2023-05-03T08:12:46;100414.75;;;31.89;22.92
48402;BME280;65988;52.422;16.746;2023-05-03T08:15:12;100121.63;;;30.13;22.91
48402;BME280;65988;52.422;16.746;2023-05-03T08:17:44;100248.03;;;30.75;22.04
48402;BME280;65988;52.422;16.746;2023-05-03T08:20:12;100581.34;;;32.21;22.95
48402;BME280;65988;52.422;16.746;2023-05-03T08:22:38;100894.56;;;34.68;23.79
48402;BME280;65988;52.422;16.746;2023-05-03T08:25:05;100670.94;;;34.31;22.63
48402;BME280;65988;52.422;16.746;2023-05-03T08:27:34;100630.09;;;33.84;22.94
48402;BME280;65988;52.422;16.746;2023-05-03T08:30:00;100286.22;;;32.59;22.41
48402;BME280;65988;52.422;16.746;2023-05-03T08:32:26;100567.50;;;33.02;22.63
48402;BME280;65988;52.422;16.746;2023-05-03T08:34:53;100608.22;;;33.81;22.59
48402;BME280;65988;52.422;16.746;2023-05-03T08:37:20;100532.78;;;32.94;22.23
48402;BME280;65988;52.422;16.746;2023-05-03T08:39:47;100335.75;;;32.40;22.21
48402;BME280;65988;52.422;16.746;2023-05-03T08:42:12;100288.97;;;32.66;21.66
48402;BME280;65988;52.422;16.746;2023-05-03T08:44:44;100629.94;;;34.59;21.66
48402;BME280;65988;52.422;16.746;2023-05-03T08:47:11;100849.91;;;34.97;23.22
48402;BME280;65988;52.422;16.746;2023-05-03T08:49:38;100580.72;;;33.93;22.56
48402;BME280;65988;52.422;16.746;2023-05-03T08:52:04;100497.25;;;32.62;22.56
48402;BME280;65988;52.422;16.746;2023-05-03T08:54:32;100285.84;;;31.64;22.79
48402;BME280;65988;52.422;16.746;2023-05-03T08:56:57;100253.47;;;29.61;24.39
48402;BME280;65988;52.422;16.746;2023-05-03T08:59:23;100278.91;;;29.80;23.86
48402;BME280;65988;52.422;16.746;2023-05-03T09:01:51;100063.13;;;28.74;24.08
48402;BME280;65988;52.422;16.746;2023-05-03T09:04:16;100376.84;;;30.35;23.99
48402;BME280;65988;52.422;16.746;2023-05-03T09:06:42;100572.63;;;33.42;23.75
48402;BME280;65988;52.422;16.746;2023-05-03T09:09:07;100699.19;;;35.98;22.50
48402;BME280;65988;52.422;16.746;2023-05-03T09:11:35;100723.06;;;36.70;20.99
48402;BME280;65988;52.422;16.746;2023-05-03T09:14:11;100564.78;;;34.72;21.77
48402;BME280;65988;52.422;16.746;2023-05-03T09:16:38;100762.41;;;34.88;22.78
48402;BME280;65988;52.422;16.746;2023-05-03T09:19:06;100583.53;;;34.43;22.04
48402;BME280;65988;52.422;16.746;2023-05-03T09:21:34;100537.22;;;35.20;21.13
48402;BME280;65988;52.422;16.746;2023-05-03T09:24:00;100438.66;;;35.82;20.62
48402;BME280;65988;52.422;16.746;2023-05-03T09:26:34;100520.66;;;36.20;19.80
48402;BME280;65988;52.422;16.746;2023-05-03T09:29:02;100394.28;;;35.38;19.56
48402;BME280;65988;52.422;16.746;2023-05-03T12:28:21;100508.13;;;37.71;20.32
48402;BME280;65988;52.422;16.746;2023-05-03T12:30:47;100422.84;;;37.70;20.02
48402;BME280;65988;52.422;16.746;2023-05-03T12:33:12;100274.38;;;35.70;20.12
48402;BME280;65988;52.422;16.746;2023-05-03T12:35:39;100346.47;;;35.20;21.10
48402;BME280;65988;52.422;16.746;2023-05-03T12:38:08;100697.63;;;36.86;21.52
48402;BME280;65988;52.422;16.746;2023-05-03T12:40:37;100454.97;;;36.88;20.68
48402;BME280;65988;52.422;16.746;2023-05-03T12:43:03;100369.38;;;35.16;21.68
48402;BME280;65988;52.422;16.746;2023-05-03T12:45:28;100696.81;;;37.32;21.59
48402;BME280;65988;52.422;16.746;2023-05-03T12:48:01;100750.47;;;37.74;21.41
48402;BME280;65988;52.422;16.746;2023-05-03T12:50:29;100430.19;;;36.45;21.16
48402;BME280;65988;52.422;16.746;2023-05-03T12:52:55;100525.97;;;35.93;21.41
48402;BME280;65988;52.422;16.746;2023-05-03T12:55:28;100852.06;;;38.93;20.69
48402;BME280;65988;52.422;16.746;2023-05-03T12:57:58;100622.06;;;38.12;21.25
48402;BME280;65988;52.422;16.746;2023-05-03T13:00:24;100244.72;;;36.24;19.89
48402;BME280;65988;52.422;16.746;2023-05-03T13:02:52;100386.56;;;34.79;21.48
48402;BME280;65988;52.422;16.746;2023-05-03T13:05:18;100601.63;;;36.31;21.48
48402;BME280;65988;52.422;16.746;2023-05-03T13:07:45;100355.06;;;36.24;20.22
48402;BME280;65988;52.422;16.746;2023-05-03T13:10:12;100338.09;;;35.76;21.02
48402;BME280;65988;52.422;16.746;2023-05-03T13:12:38;100441.75;;;36.12;21.26
48402;BME280;65988;52.422;16.746;2023-05-03T13:15:03;100381.75;;;35.65;20.79
48402;BME280;65988;52.422;16.746;2023-05-03T13:17:29;100329.97;;;34.04;21.56
48402;BME280;65988;52.422;16.746;2023-05-03T13:19:55;100109.28;;;32.47;21.95
48402;BME280;65988;52.422;16.746;2023-05-03T13:22:21;100206.44;;;31.88;22.35
48402;BME280;65988;52.422;16.746;2023-05-03T13:24:46;100152.06;;;32.26;22.39
48402;BME280;65988;52.422;16.746;2023-05-03T13:27:12;100300.69;;;31.67;23.58
48402;BME280;65988;52.422;16.746;2023-05-03T13:29:38;100314.97;;;30.96;23.89
48402;BME280;65988;52.422;16.746;2023-05-03T13:32:04;100235.03;;;30.71;23.48
48402;BME280;65988;52.422;16.746;2023-05-03T13:34:30;100287.84;;;30.84;24.17
48402;BME280;65988;52.422;16.746;2023-05-03T13:36:55;100117.16;;;30.36;23.12
48402;BME280;65988;52.422;16.746;2023-05-03T13:39:21;100380.47;;;31.15;23.95
48402;BME280;65988;52.422;16.746;2023-05-03T13:41:46;100273.63;;;30.92;24.19
48402;BME280;65988;52.422;16.746;2023-05-03T13:44:12;100517.34;;;32.96;23.80
48402;BME280;65988;52.422;16.746;2023-05-03T13:46:38;100336.81;;;32.69;22.56
48402;BME280;65988;52.422;16.746;2023-05-03T13:49:04;100355.31;;;33.00;23.27
48402;BME280;65988;52.422;16.746;2023-05-03T13:51:30;100417.16;;;31.53;24.57
48402;BME280;65988;52.422;16.746;2023-05-03T13:53:58;100441.28;;;32.37;23.48
48402;BME280;65988;52.422;16.746;2023-05-03T13:56:24;100027.00;;;30.63;22.41
48402;BME280;65988;52.422;16.746;2023-05-03T13:58:49;100061.13;;;31.74;21.92
48402;BME280;65988;52.422;16.746;2023-05-03T14:01:16;100339.13;;;30.63;24.16
48402;BME280;65988;52.422;16.746;2023-05-03T14:03:42;100305.78;;;31.77;23.22
48402;BME280;65988;52.422;16.746;2023-05-03T14:06:08;100217.84;;;31.05;23.27
48402;BME280;65988;52.422;16.746;2023-05-03T14:08:33;100141.28;;;29.56;25.23
48402;BME280;65988;52.422;16.746;2023-05-03T14:10:59;100333.22;;;30.12;25.43
48402;BME280;65988;52.422;16.746;2023-05-03T14:13:24;100382.81;;;31.96;23.49
48402;BME280;65988;52.422;16.746;2023-05-03T14:15:50;100482.00;;;33.67;22.90
